Historyczne dane pomiarowe

Dodano dane terminowe – wersja testowa.

Dane z okresu 1951-2019

Wersja bazy: 1.34 [2019-03-16, lista zmian], aktualizacja planowana na 2019-04-15

Dane meteo z obszaru Polski uzyskane na podstawie danych udostępnionych przez Instytut Meteorologii i Gospodarki Wodnej – Państwowy Instytut Badawczy.

 

Wybierz Datę:    

       

TemperaturaWilgotnośćZachmurzenieWiatrCiśnienieWidzialnośćZjawiska
 Data    tng td wb rh cc ccl cl cm ch dir g1 g2 mslp ppp      
1999-06-28 00:00:00 17.2--- 15.8 16.391wxwxwx2wx--1010.5 987.9 0.1---wxw1
1999-06-28 01:00:00 16.8--- 15.8 16.294wxwxwx2wx--1010.6 988.0----wx
1999-06-28 02:00:00 16.3--- 15.5 15.895wxwxwx2wx--1010.4 987.7----wx
1999-06-28 03:00:00 15.8--- 15.2 15.496wxwxwxwx2wx--1010.5 987.8----wx
1999-06-28 04:00:00 15.7--- 14.9 15.295wxwxwxwx2wx--1010.8 988.1----wx
1999-06-28 05:00:00 16.4--- 14.9 15.591wxwxwxwx2wx--1010.6 987.9----wx
1999-06-28 06:00:00 17.8--- 16.2 16.890wxwxwxwx3wx--1010.5 987.9 0.0---wx
1999-06-28 07:00:00 19.8--- 17.3 18.286wxwxwxwx2wx--1010.9 988.5----wx
1999-06-28 08:00:00 21.6--- 16.0 18.070wxwxwx1wx--1010.9 988.6----wx
1999-06-28 09:00:00 22.2--- 15.3 17.865wxwxwxwx1wx--1011.2 989.0----wx
1999-06-28 10:00:00 23.2--- 15.3 18.261wxwxwxwx1wx--1011.7 989.5----wx
1999-06-28 11:00:00 23.8--- 15.3 18.459wxwxwxwx2wx--1011.7 989.6----wx
1999-06-28 12:00:00 23.3--- 16.3 18.865wxwxwx2wx--1011.9 989.7 0.0---wxw1
1999-06-28 13:00:00 25.3--- 16.0 19.357wxwxwxwx4wx--1012.1 990.1----wx
1999-06-28 14:00:00 24.0--- 14.8 18.257wxwxwxwx5wx--1012.6 990.5----wx
1999-06-28 15:00:00 23.1--- 13.2 17.054wxwxwxwxwx5wx--1013.5 991.3----wx
1999-06-28 16:00:00 21.8--- 13.5 16.759wxwxwxwx5wx10-1014.2 991.9----wx
1999-06-28 17:00:00 20.8--- 12.5 15.859wxwxwxwx5wx--1015.2 992.8----wx
1999-06-28 18:00:00 19.8--- 10.9 14.656wxwxwx4wx--1016.1 993.6 0.0---wx
1999-06-28 19:00:00 18.8--- 8.3 13.051wxwxwxwx3wx--1016.8 994.2----wx
1999-06-28 20:00:00 18.0--- 9.5 13.258wxwxwxwx2wx--1017.6 994.9----wx
1999-06-28 21:00:00 16.4--- 11.2 13.471wxwxwxwx2wx--1018.4 995.6----wx
1999-06-28 22:00:00 15.8--- 10.9 13.073wxwxwx2wx--1019.1 996.2----wx
1999-06-28 23:00:00 15.1--- 10.7 12.675wxwxwx2wx--1019.4 996.4----wx

 

Źródłem pochodzenia danych jest Instytut Meteorologii i Gospodarki Wodnej – Państwowy Instytut Badawczy. Dane Instytutu Meteorologii i Gospodarki Wodnej – Państwowego Instytutu Badawczego zostały przetworzone.

Dane źródłowe można odnaleźć na stronie https://dane.imgw.pl